createdAt,value
2022-08-08T00:06:56.030Z,98893.31
2022-08-08T00:17:22.660Z,98886.88
2022-08-08T00:27:34.860Z,98878.38
2022-08-08T00:38:32.423Z,98887.31
2022-08-08T00:49:21.922Z,98885.88
2022-08-08T00:59:50.777Z,98880.16
2022-08-08T01:10:05.908Z,98880.84
2022-08-08T01:20:15.525Z,98883.13
2022-08-08T01:30:24.718Z,98881.91
2022-08-08T01:40:42.506Z,98879.56
2022-08-08T01:51:00.005Z,98883.38
2022-08-08T02:01:27.852Z,98890.53
2022-08-08T02:12:00.174Z,98885.31
2022-08-08T02:22:31.879Z,98877.25
2022-08-08T02:32:57.173Z,98879.69
2022-08-08T02:44:35.792Z,98882.81
2022-08-08T02:54:08.596Z,98901.06
2022-08-08T03:05:05.295Z,98895.81
2022-08-08T03:15:58.629Z,98895.44
2022-08-08T03:26:05.314Z,98905.72
2022-08-08T03:36:19.525Z,98908.00
2022-08-08T03:46:26.535Z,98902.34
2022-08-08T03:56:39.086Z,98911.09
2022-08-08T04:06:56.929Z,98913.47
2022-08-08T04:17:22.799Z,98924.16
2022-08-08T04:28:01.322Z,98923.03
2022-08-08T04:38:01.365Z,98933.13
2022-08-08T04:48:07.721Z,98943.78
2022-08-08T04:58:17.713Z,98932.66
2022-08-08T05:08:26.941Z,98953.41
2022-08-08T05:18:35.173Z,98946.16
2022-08-08T05:28:56.604Z,98955.31
2022-08-08T05:39:07.221Z,98952.06
2022-08-08T05:49:17.650Z,98951.66
2022-08-08T06:00:00.866Z,98959.63
2022-08-08T06:10:00.169Z,98962.28
2022-08-08T06:20:11.663Z,98977.75
2022-08-08T06:30:20.282Z,98972.00
2022-08-08T06:40:36.821Z,98971.97
2022-08-08T06:50:44.020Z,98973.38
2022-08-08T07:00:51.950Z,98983.31
2022-08-08T07:11:00.837Z,98984.31
2022-08-08T07:21:09.956Z,98983.75
2022-08-08T07:31:26.487Z,98986.31
2022-08-08T07:41:58.898Z,98987.78
2022-08-08T07:52:00.666Z,99007.16
2022-08-08T08:02:34.328Z,99011.25
2022-08-08T08:12:42.211Z,99002.97
2022-08-08T08:22:49.928Z,99012.06
2022-08-08T08:32:56.271Z,99007.19
2022-08-08T08:43:09.028Z,99017.28
2022-08-08T08:53:55.045Z,99028.66
2022-08-08T09:03:51.487Z,99023.34
2022-08-08T09:13:58.123Z,99032.00
2022-08-08T09:24:04.740Z,99019.56
2022-08-08T09:34:31.565Z,99021.50
2022-08-08T09:45:04.125Z,99029.28
2022-08-08T09:55:17.448Z,99030.75
2022-08-08T10:05:41.291Z,99022.53
2022-08-08T10:16:00.451Z,99023.34
2022-08-08T10:26:25.728Z,99014.88
2022-08-08T10:36:34.754Z,99023.72
2022-08-08T10:56:47.339Z,99018.78
2022-08-08T11:07:02.131Z,99022.53
2022-08-08T11:17:14.848Z,99017.19
2022-08-08T11:27:29.210Z,99012.44
2022-08-08T11:38:35.120Z,99011.47
2022-08-08T11:48:10.902Z,99003.84
2022-08-08T11:58:37.623Z,98987.94
2022-08-08T12:08:44.371Z,98991.78
2022-08-08T12:18:52.265Z,98977.50
2022-08-08T12:28:59.998Z,98990.16
2022-08-08T12:39:06.695Z,98993.91
2022-08-08T12:49:43.275Z,98978.47
2022-08-08T13:00:04.535Z,98973.97
2022-08-08T13:10:17.195Z,98971.19
2022-08-08T13:20:27.326Z,98964.31
2022-08-08T13:30:34.153Z,98954.31
2022-08-08T13:40:41.448Z,98952.94
2022-08-08T13:50:56.931Z,98960.47
2022-08-08T14:01:18.086Z,98955.31
2022-08-08T14:11:27.941Z,98953.16
2022-08-08T14:21:52.118Z,98953.38
2022-08-08T14:32:09.344Z,98955.44
2022-08-08T14:42:31.212Z,98945.91
2022-08-08T14:52:46.452Z,98951.50
2022-08-08T15:02:58.539Z,98952.16
2022-08-08T15:13:07.963Z,98950.22
2022-08-08T15:23:14.885Z,98951.84
2022-08-08T15:33:38.135Z,98947.16
2022-08-08T15:44:00.865Z,98944.09
2022-08-08T15:54:37.201Z,98942.28
2022-08-08T16:04:33.618Z,98944.66
2022-08-08T16:14:41.246Z,98951.94
2022-08-08T16:25:05.783Z,98955.34
2022-08-08T16:35:13.693Z,98953.41
2022-08-08T16:46:36.936Z,98945.47
2022-08-08T16:55:58.113Z,98954.53
2022-08-08T17:06:35.296Z,98963.69
2022-08-08T17:16:33.446Z,98961.41
2022-08-08T17:26:40.024Z,98965.53
2022-08-08T17:37:00.060Z,98961.44
2022-08-08T17:47:09.728Z,98964.13
2022-08-08T17:57:16.227Z,98970.91
2022-08-08T18:08:02.845Z,98968.97
2022-08-08T18:18:09.216Z,98981.22
2022-08-08T18:28:15.163Z,99004.44
2022-08-08T18:38:29.866Z,99020.78
2022-08-08T18:48:36.284Z,99027.00
2022-08-08T18:58:42.577Z,99033.06
2022-08-08T19:08:49.111Z,99046.63
2022-08-08T19:19:01.956Z,99045.09
2022-08-08T19:29:10.090Z,99048.37
2022-08-08T19:39:16.445Z,99044.16
2022-08-08T19:49:25.833Z,99043.13
2022-08-08T19:59:34.951Z,99052.50
2022-08-08T20:09:45.225Z,99052.88
2022-08-08T20:20:02.763Z,99056.34
2022-08-08T20:30:53.900Z,99062.56
2022-08-08T20:40:39.685Z,99061.75
2022-08-08T20:50:46.510Z,99071.25
2022-08-08T21:00:52.865Z,99072.19
2022-08-08T21:11:00.477Z,99081.28
2022-08-08T21:21:41.005Z,99074.81
2022-08-08T21:31:57.531Z,99073.00
2022-08-08T21:42:05.246Z,99065.69
2022-08-08T21:54:27.269Z,99066.53
2022-08-08T22:02:41.118Z,99067.84
2022-08-08T22:12:47.569Z,99061.03
2022-08-08T22:22:56.152Z,99068.66
2022-08-08T22:33:03.251Z,99076.47
2022-08-08T22:43:28.470Z,99073.50
2022-08-08T22:54:33.027Z,99068.25
2022-08-08T23:04:04.969Z,99081.19
2022-08-08T23:14:11.850Z,99080.13
2022-08-08T23:24:22.373Z,99088.59
2022-08-08T23:34:29.478Z,99090.16
2022-08-08T23:44:38.593Z,99086.44
2022-08-08T23:55:00.098Z,99070.41
